createdAt,value
2018-09-12T00:00:05.874Z,5.00
2018-09-12T00:02:33.108Z,4.73
2018-09-12T00:05:00.380Z,5.20
2018-09-12T00:07:27.638Z,4.80
2018-09-12T00:09:54.855Z,5.10
2018-09-12T00:12:22.119Z,4.77
2018-09-12T00:14:49.347Z,4.50
2018-09-12T00:17:16.565Z,5.30
2018-09-12T00:19:43.817Z,4.77
2018-09-12T00:22:11.055Z,5.37
2018-09-12T00:24:38.280Z,5.80
2018-09-12T00:27:05.498Z,5.10
2018-09-12T00:29:32.715Z,4.70
2018-09-12T00:31:59.926Z,5.10
2018-09-12T00:34:27.171Z,4.27
2018-09-12T00:36:54.411Z,5.33
2018-09-12T00:39:21.655Z,4.87
2018-09-12T00:41:48.946Z,5.07
2018-09-12T00:44:16.204Z,4.53
2018-09-12T00:46:43.449Z,4.70
2018-09-12T00:49:10.622Z,5.10
2018-09-12T00:51:37.921Z,5.90
2018-09-12T00:54:05.344Z,5.47
2018-09-12T00:56:32.561Z,4.60
2018-09-12T00:58:59.778Z,5.07
2018-09-12T01:01:27.149Z,4.37
2018-09-12T01:03:54.319Z,5.00
2018-09-12T01:06:21.619Z,5.80
2018-09-12T01:08:48.890Z,4.90
2018-09-12T01:11:16.174Z,4.60
2018-09-12T01:13:43.445Z,6.20
2018-09-12T01:16:10.744Z,5.10
2018-09-12T01:18:37.921Z,4.37
2018-09-12T01:21:05.313Z,5.33
2018-09-12T01:23:32.537Z,5.63
2018-09-12T01:25:59.763Z,4.90
2018-09-12T01:28:27.036Z,5.77
2018-09-12T01:30:54.242Z,4.70
2018-09-12T01:33:21.488Z,5.10
2018-09-12T01:35:48.700Z,5.63
2018-09-12T01:38:15.916Z,5.20
2018-09-12T01:40:43.138Z,5.60
2018-09-12T01:43:10.453Z,4.70
2018-09-12T01:45:37.645Z,5.07
2018-09-12T01:48:04.855Z,5.90
2018-09-12T01:50:32.074Z,5.93
2018-09-12T01:52:59.343Z,5.30
2018-09-12T01:55:26.611Z,5.53
2018-09-12T01:57:53.801Z,5.80
2018-09-12T02:00:25.593Z,5.40
2018-09-12T02:02:52.791Z,5.33
2018-09-12T02:05:20.120Z,6.23
2018-09-12T02:07:47.313Z,6.27
2018-09-12T02:10:14.606Z,5.10
2018-09-12T02:12:41.820Z,5.63
2018-09-12T02:15:09.056Z,4.37
2018-09-12T02:17:36.322Z,5.40
2018-09-12T02:20:04.192Z,5.67
2018-09-12T02:22:31.688Z,5.33
2018-09-12T02:24:58.885Z,5.93
2018-09-12T02:27:26.199Z,5.97
2018-09-12T02:29:53.439Z,5.77
2018-09-12T02:32:20.670Z,4.43
2018-09-12T02:34:47.928Z,5.80
2018-09-12T02:37:15.173Z,5.80
2018-09-12T02:39:42.391Z,5.33
2018-09-12T02:42:09.665Z,5.50
2018-09-12T02:44:36.896Z,4.80
2018-09-12T02:47:08.719Z,4.83
2018-09-12T02:49:35.906Z,5.20
2018-09-12T02:52:03.150Z,5.33
2018-09-12T02:54:30.382Z,6.43
2018-09-12T02:56:57.615Z,5.57
2018-09-12T02:59:24.849Z,5.27
2018-09-12T03:01:52.115Z,6.00
2018-09-12T03:04:36.729Z,5.17
2018-09-12T03:07:04.084Z,6.53
2018-09-12T03:09:31.282Z,5.70
2018-09-12T03:11:58.516Z,5.20
2018-09-12T03:14:25.715Z,5.27
2018-09-12T03:16:52.976Z,5.43
2018-09-12T03:19:20.184Z,5.93
2018-09-12T03:21:47.431Z,5.33
2018-09-12T03:24:14.694Z,5.10
2018-09-12T03:26:41.988Z,6.30
2018-09-12T03:29:09.172Z,5.43
2018-09-12T03:31:36.572Z,6.57
2018-09-12T03:34:03.774Z,5.30
2018-09-12T03:36:30.986Z,6.87
2018-09-12T03:38:58.221Z,7.13
2018-09-12T03:41:25.494Z,5.47
2018-09-12T03:43:52.768Z,6.27
2018-09-12T03:46:20.019Z,6.70
2018-09-12T03:48:47.490Z,6.13
2018-09-12T03:51:14.641Z,5.77
2018-09-12T03:53:41.856Z,6.00
2018-09-12T03:56:09.094Z,5.90
2018-09-12T03:58:36.350Z,5.30
2018-09-12T04:01:03.599Z,6.27
2018-09-12T04:03:30.810Z,6.17
2018-09-12T04:05:58.080Z,6.50
2018-09-12T04:08:25.222Z,5.80
2018-09-12T04:10:52.452Z,5.60
2018-09-12T04:13:19.729Z,5.80
2018-09-12T04:15:46.961Z,6.37
2018-09-12T04:18:14.197Z,6.40
2018-09-12T04:20:41.371Z,6.80
2018-09-12T04:23:08.583Z,5.93
2018-09-12T04:25:35.823Z,6.50
2018-09-12T04:28:03.139Z,6.50
2018-09-12T04:30:30.340Z,5.90
2018-09-12T04:32:57.589Z,6.33
2018-09-12T04:35:24.779Z,6.13
2018-09-12T04:37:52.036Z,5.80
2018-09-12T04:40:19.248Z,5.23
2018-09-12T04:42:46.585Z,5.90
2018-09-12T04:45:13.785Z,6.37
2018-09-12T04:47:41.038Z,5.93
2018-09-12T04:50:08.268Z,6.33
2018-09-12T04:52:35.576Z,6.43
2018-09-12T04:55:02.887Z,7.43
2018-09-12T04:57:30.150Z,6.13
2018-09-12T04:59:57.354Z,6.93
2018-09-12T05:02:24.534Z,7.40
2018-09-12T05:04:51.777Z,6.77
2018-09-12T05:07:19.056Z,5.80
2018-09-12T05:09:46.313Z,6.43
2018-09-12T05:12:13.577Z,7.62
2018-09-12T05:14:40.819Z,6.40
2018-09-12T05:17:08.048Z,6.50
2018-09-12T05:19:35.321Z,7.73
2018-09-12T05:22:02.527Z,6.00
2018-09-12T05:24:29.740Z,6.17
2018-09-12T05:26:56.988Z,6.50
2018-09-12T05:29:24.218Z,6.63
2018-09-12T05:31:51.407Z,6.23
2018-09-12T05:34:18.634Z,7.17
2018-09-12T05:36:45.879Z,7.73
2018-09-12T05:39:13.085Z,7.50
2018-09-12T05:41:40.279Z,6.30
2018-09-12T05:44:07.488Z,7.07
2018-09-12T05:46:35.570Z,5.60
2018-09-12T05:49:03.186Z,5.50
2018-09-12T05:51:30.426Z,7.20
2018-09-12T05:53:57.683Z,6.87
2018-09-12T05:56:24.959Z,7.10
2018-09-12T05:58:52.225Z,6.43
2018-09-12T06:01:19.427Z,6.63
2018-09-12T06:03:46.741Z,7.37
2018-09-12T06:06:14.017Z,6.97
2018-09-12T06:08:41.355Z,6.73
2018-09-12T06:11:08.595Z,7.97
2018-09-12T06:13:35.797Z,7.03
2018-09-12T06:16:03.056Z,6.87
2018-09-12T06:18:30.376Z,6.70
2018-09-12T06:20:57.613Z,6.60
2018-09-12T06:23:24.856Z,6.13
2018-09-12T06:25:52.153Z,7.03
2018-09-12T06:28:19.331Z,6.67
2018-09-12T06:30:46.526Z,6.53
2018-09-12T06:33:13.756Z,7.23
2018-09-12T06:35:41.019Z,7.10
2018-09-12T06:38:08.245Z,6.90
2018-09-12T06:40:35.450Z,5.70
2018-09-12T06:43:02.643Z,6.33
2018-09-12T06:45:29.852Z,6.90
2018-09-12T06:47:57.117Z,7.20
2018-09-12T06:50:24.358Z,8.13
2018-09-12T06:52:51.554Z,8.10
2018-09-12T06:55:18.762Z,7.20
2018-09-12T06:57:45.997Z,8.70
2018-09-12T07:00:13.207Z,7.50
2018-09-12T07:02:40.418Z,8.57
2018-09-12T07:05:07.657Z,7.53
2018-09-12T07:07:34.854Z,7.50
2018-09-12T07:10:02.116Z,7.93
2018-09-12T07:12:29.301Z,7.10
2018-09-12T07:14:56.541Z,6.77
2018-09-12T07:17:23.808Z,6.73
2018-09-12T07:19:51.051Z,6.97
2018-09-12T07:22:18.214Z,6.40
2018-09-12T07:24:45.515Z,6.60
2018-09-12T07:27:12.780Z,7.30
2018-09-12T07:29:40.029Z,7.10
2018-09-12T07:32:07.228Z,8.80
2018-09-12T07:34:34.490Z,6.60
2018-09-12T07:37:01.721Z,6.83
2018-09-12T07:39:28.931Z,6.27
2018-09-12T07:41:56.138Z,6.00
2018-09-12T07:44:23.277Z,5.57
2018-09-12T07:46:50.575Z,6.60
2018-09-12T07:49:17.806Z,5.77
2018-09-12T07:51:44.986Z,5.73
2018-09-12T07:54:12.166Z,5.77
2018-09-12T07:56:39.425Z,4.87
2018-09-12T07:59:06.680Z,4.90
2018-09-12T08:01:33.932Z,5.50
2018-09-12T08:04:01.195Z,5.40
2018-09-12T08:06:28.448Z,4.80
2018-09-12T08:08:55.653Z,5.27
2018-09-12T08:11:22.908Z,4.60
2018-09-12T08:13:50.308Z,4.47
2018-09-12T08:16:17.494Z,4.77
2018-09-12T08:18:44.837Z,4.57
2018-09-12T08:21:12.149Z,5.27
2018-09-12T08:23:39.548Z,5.23
2018-09-12T08:26:06.787Z,4.10
2018-09-12T08:28:34.004Z,4.93
2018-09-12T08:31:01.387Z,5.03
2018-09-12T08:33:28.599Z,5.00
2018-09-12T08:35:57.925Z,4.20
2018-09-12T08:38:25.291Z,4.27
2018-09-12T08:40:52.565Z,4.27
2018-09-12T08:43:19.843Z,5.07
2018-09-12T08:45:47.055Z,3.90
2018-09-12T08:48:14.327Z,4.43
2018-09-12T08:50:41.618Z,4.17
2018-09-12T08:53:08.825Z,3.53
2018-09-12T08:55:36.094Z,4.30
2018-09-12T08:58:03.376Z,4.07
2018-09-12T09:00:34.172Z,4.23
2018-09-12T09:03:01.764Z,3.10
2018-09-12T09:05:29.032Z,3.47
2018-09-12T09:07:56.407Z,4.03
2018-09-12T09:10:23.928Z,4.53
2018-09-12T09:12:51.113Z,3.70
2018-09-12T09:15:18.399Z,3.53
2018-09-12T09:17:45.599Z,3.33
2018-09-12T09:20:12.843Z,3.57
2018-09-12T09:22:40.103Z,3.80
2018-09-12T09:25:07.386Z,3.23
2018-09-12T09:27:34.605Z,3.30
2018-09-12T09:30:01.830Z,3.30
2018-09-12T09:32:29.114Z,3.90
2018-09-12T09:34:56.349Z,3.30
2018-09-12T09:37:23.590Z,4.07
2018-09-12T09:39:50.812Z,3.13
2018-09-12T09:42:18.078Z,2.80
2018-09-12T09:44:45.277Z,3.37
2018-09-12T09:47:12.485Z,3.60
2018-09-12T09:49:39.681Z,2.60
2018-09-12T09:52:06.947Z,2.77
2018-09-12T09:54:34.194Z,2.30
2018-09-12T09:57:01.463Z,2.23
2018-09-12T09:59:28.704Z,2.90
2018-09-12T10:02:01.516Z,2.60
2018-09-12T10:04:34.491Z,2.67
2018-09-12T10:07:07.480Z,2.40
2018-09-12T10:09:34.750Z,2.63
2018-09-12T10:12:02.961Z,2.13
2018-09-12T10:14:30.308Z,3.07
2018-09-12T10:16:57.723Z,2.70
2018-09-12T10:19:24.963Z,2.47
2018-09-12T10:21:52.222Z,2.97
2018-09-12T10:24:19.559Z,2.60
2018-09-12T10:26:46.828Z,2.40
2018-09-12T10:29:14.340Z,2.57
2018-09-12T10:31:41.528Z,2.40
2018-09-12T10:34:08.807Z,1.93
2018-09-12T10:36:36.076Z,3.00
2018-09-12T10:39:05.081Z,2.97
2018-09-12T10:41:32.472Z,5.03
2018-09-12T10:43:59.823Z,2.67
2018-09-12T10:46:27.110Z,2.10
2018-09-12T10:48:54.330Z,2.30
2018-09-12T10:51:21.644Z,2.60
2018-09-12T10:53:48.831Z,3.93
2018-09-12T10:56:16.105Z,2.40
2018-09-12T10:58:43.328Z,2.30
2018-09-12T11:01:10.636Z,2.90
2018-09-12T11:03:37.882Z,2.60
2018-09-12T11:06:05.218Z,2.73
2018-09-12T11:08:32.544Z,2.60
2018-09-12T11:10:59.867Z,1.83
2018-09-12T11:13:27.165Z,2.60
2018-09-12T11:15:54.466Z,2.40
2018-09-12T11:18:21.734Z,2.20
2018-09-12T11:20:48.955Z,2.77
2018-09-12T11:23:16.188Z,2.40
2018-09-12T11:25:43.415Z,2.50
2018-09-12T11:28:10.710Z,2.70
2018-09-12T11:30:37.991Z,2.53
2018-09-12T11:33:05.242Z,3.03
2018-09-12T11:35:32.513Z,2.97
2018-09-12T11:37:59.717Z,2.33
2018-09-12T11:40:26.952Z,2.50
2018-09-12T11:42:54.172Z,2.60
2018-09-12T11:45:21.454Z,2.73
2018-09-12T11:47:48.658Z,2.37
2018-09-12T11:50:15.899Z,2.57
2018-09-12T11:52:43.192Z,2.23
2018-09-12T11:55:10.495Z,2.30
2018-09-12T11:57:37.731Z,2.40
2018-09-12T12:00:05.374Z,2.57
2018-09-12T12:02:32.626Z,2.93
2018-09-12T12:04:59.876Z,2.53
2018-09-12T12:07:27.167Z,2.87
2018-09-12T12:09:54.486Z,2.60
2018-09-12T12:12:21.705Z,2.40
2018-09-12T12:14:49.108Z,2.37
2018-09-12T12:17:16.420Z,2.13
2018-09-12T12:19:43.651Z,2.60
2018-09-12T12:22:10.925Z,3.33
2018-09-12T12:24:38.197Z,2.70
2018-09-12T12:27:06.019Z,2.80
2018-09-12T12:29:33.338Z,2.67
2018-09-12T12:32:00.607Z,2.37
2018-09-12T12:34:27.804Z,2.30
2018-09-12T12:36:55.085Z,2.60
2018-09-12T12:39:22.315Z,3.13
2018-09-12T12:41:49.613Z,3.30
2018-09-12T12:44:16.796Z,2.97
2018-09-12T12:46:44.082Z,2.70
2018-09-12T12:49:11.246Z,2.70
2018-09-12T12:51:38.500Z,2.63
2018-09-12T12:54:05.739Z,2.73
2018-09-12T12:56:33.019Z,3.37
2018-09-12T12:59:00.233Z,2.97
2018-09-12T13:01:27.544Z,2.50
2018-09-12T13:03:54.817Z,3.10
2018-09-12T13:06:22.133Z,2.80
2018-09-12T13:08:49.361Z,2.50
2018-09-12T13:11:16.630Z,3.10
2018-09-12T13:13:43.880Z,2.47
2018-09-12T13:16:11.117Z,2.60
2018-09-12T13:18:38.385Z,2.23
2018-09-12T13:21:05.692Z,2.80
2018-09-12T13:23:32.950Z,2.87
2018-09-12T13:26:00.246Z,2.90
2018-09-12T13:28:27.508Z,2.70
2018-09-12T13:30:54.781Z,2.37
2018-09-12T13:33:22.119Z,2.40
2018-09-12T13:35:49.388Z,2.30
2018-09-12T13:38:16.638Z,2.50
2018-09-12T13:40:43.841Z,2.20
2018-09-12T13:43:11.120Z,1.97
2018-09-12T13:45:38.372Z,2.47
2018-09-12T13:48:05.592Z,2.30
2018-09-12T13:50:32.897Z,2.60
2018-09-12T13:53:00.107Z,2.93
2018-09-12T13:55:27.374Z,2.43
2018-09-12T13:57:54.541Z,2.10
2018-09-12T14:00:21.784Z,8.80
2018-09-12T14:02:49.033Z,10.73
2018-09-12T14:05:16.286Z,2.83
2018-09-12T14:07:43.611Z,2.07
2018-09-12T14:10:10.874Z,2.70
2018-09-12T14:12:38.198Z,2.90
2018-09-12T14:15:05.517Z,2.00
2018-09-12T14:17:32.818Z,2.73
2018-09-12T14:20:00.309Z,2.90
2018-09-12T14:22:27.616Z,2.50
2018-09-12T14:24:54.900Z,2.20
2018-09-12T14:27:22.141Z,2.13
2018-09-12T14:29:49.395Z,2.10
2018-09-12T14:32:16.721Z,2.50
2018-09-12T14:34:43.986Z,2.50
2018-09-12T14:37:11.155Z,2.20
2018-09-12T14:39:38.346Z,2.57
2018-09-12T14:42:05.673Z,2.67
2018-09-12T14:44:32.909Z,2.53
2018-09-12T14:47:00.114Z,2.60
2018-09-12T14:49:27.422Z,2.30
2018-09-12T14:51:54.601Z,2.70
2018-09-12T14:54:21.853Z,3.10
2018-09-12T14:56:49.129Z,4.37
2018-09-12T14:59:16.408Z,2.70
2018-09-12T15:01:43.627Z,2.40
2018-09-12T15:04:10.826Z,2.53
2018-09-12T15:06:38.102Z,2.00
2018-09-12T15:09:07.377Z,2.43
2018-09-12T15:11:34.595Z,2.30
2018-09-12T15:14:01.868Z,2.87
2018-09-12T15:16:29.107Z,2.40
2018-09-12T15:18:56.376Z,3.20
2018-09-12T15:21:23.608Z,2.40
2018-09-12T15:23:50.815Z,2.30
2018-09-12T15:26:18.090Z,2.30
2018-09-12T15:28:45.360Z,2.10
2018-09-12T15:31:12.616Z,2.50
2018-09-12T15:33:39.829Z,2.07
2018-09-12T15:36:07.186Z,2.00
2018-09-12T15:38:34.502Z,3.10
2018-09-12T15:41:01.821Z,2.57
2018-09-12T15:43:29.092Z,2.60
2018-09-12T15:45:56.324Z,2.63
2018-09-12T15:48:23.509Z,2.43
2018-09-12T15:50:50.761Z,2.43
2018-09-12T15:53:17.920Z,2.60
2018-09-12T15:55:45.141Z,2.80
2018-09-12T15:58:12.483Z,3.20
2018-09-12T16:00:39.627Z,2.33
2018-09-12T16:03:06.964Z,2.97
2018-09-12T16:05:34.192Z,3.17
2018-09-12T16:08:01.524Z,3.10
2018-09-12T16:10:28.740Z,2.60
2018-09-12T16:12:56.051Z,2.57
2018-09-12T16:15:23.455Z,2.40
2018-09-12T16:17:50.529Z,2.70
2018-09-12T16:20:17.814Z,3.57
2018-09-12T16:22:45.032Z,2.97
2018-09-12T16:25:12.314Z,3.37
2018-09-12T16:27:39.564Z,3.07
2018-09-12T16:30:07.124Z,3.30
2018-09-12T16:32:34.405Z,3.87
2018-09-12T16:35:01.672Z,2.90
2018-09-12T16:37:28.925Z,3.53
2018-09-12T16:39:56.195Z,3.23
2018-09-12T16:42:23.462Z,2.97
2018-09-12T16:44:50.706Z,3.03
2018-09-12T16:47:17.865Z,3.47
2018-09-12T16:49:45.131Z,2.90
2018-09-12T16:52:12.367Z,3.13
2018-09-12T16:54:39.651Z,2.77
2018-09-12T16:57:06.910Z,3.93
2018-09-12T16:59:34.157Z,3.27
2018-09-12T17:02:01.419Z,4.20
2018-09-12T17:04:28.728Z,2.83
2018-09-12T17:06:56.050Z,2.93
2018-09-12T17:09:23.262Z,3.03
2018-09-12T17:11:50.595Z,2.73
2018-09-12T17:14:17.900Z,3.37
2018-09-12T17:16:45.097Z,3.03
2018-09-12T17:19:12.526Z,3.17
2018-09-12T17:21:39.733Z,3.37
2018-09-12T17:24:07.025Z,2.97
2018-09-12T17:26:35.084Z,3.77
2018-09-12T17:29:02.294Z,3.30
2018-09-12T17:31:29.520Z,3.23
2018-09-12T17:33:56.748Z,4.00
2018-09-12T17:36:25.771Z,3.30
2018-09-12T17:38:53.111Z,4.37
2018-09-12T17:41:20.402Z,4.00
2018-09-12T17:43:47.597Z,3.80
2018-09-12T17:46:14.779Z,3.23
2018-09-12T17:48:41.994Z,3.17
2018-09-12T17:51:09.193Z,3.13
2018-09-12T17:53:36.580Z,4.00
2018-09-12T17:56:03.862Z,4.00
2018-09-12T17:58:31.018Z,3.73
2018-09-12T18:00:58.345Z,2.70
2018-09-12T18:03:25.577Z,3.87
2018-09-12T18:05:52.873Z,3.53
2018-09-12T18:08:20.090Z,3.77
2018-09-12T18:10:47.393Z,3.80
2018-09-12T18:13:14.690Z,3.53
2018-09-12T18:15:42.028Z,4.20
2018-09-12T18:18:09.231Z,4.53
2018-09-12T18:20:36.412Z,4.17
2018-09-12T18:23:03.723Z,3.77
2018-09-12T18:25:30.939Z,3.53
2018-09-12T18:27:58.788Z,3.37
2018-09-12T18:30:26.100Z,4.00
2018-09-12T18:32:53.330Z,3.70
2018-09-12T18:35:20.569Z,4.27
2018-09-12T18:37:47.828Z,4.20
2018-09-12T18:40:15.055Z,3.63
2018-09-12T18:42:42.377Z,4.03
2018-09-12T18:45:09.577Z,4.10
2018-09-12T18:47:36.817Z,3.90
2018-09-12T18:50:04.625Z,3.43
2018-09-12T18:52:31.892Z,4.43
2018-09-12T18:54:59.134Z,3.97
2018-09-12T18:57:26.352Z,3.30
2018-09-12T18:59:53.635Z,3.23
2018-09-12T19:02:20.890Z,4.13
2018-09-12T19:04:48.184Z,3.80
2018-09-12T19:07:15.613Z,3.53
2018-09-12T19:09:42.748Z,4.70
2018-09-12T19:12:10.012Z,5.50
2018-09-12T19:14:37.283Z,3.93
2018-09-12T19:17:04.516Z,4.67
2018-09-12T19:19:31.739Z,3.97
2018-09-12T19:21:59.042Z,4.33
2018-09-12T19:24:26.313Z,4.40
2018-09-12T19:26:53.518Z,4.37
2018-09-12T19:29:20.762Z,3.83
2018-09-12T19:31:47.928Z,4.57
2018-09-12T19:34:15.135Z,4.53
2018-09-12T19:36:42.449Z,3.73
2018-09-12T19:39:10.252Z,5.17
2018-09-12T19:41:37.935Z,4.17
2018-09-12T19:44:05.356Z,4.37
2018-09-12T19:46:32.692Z,4.30
2018-09-12T19:48:59.995Z,4.73
2018-09-12T19:51:27.355Z,4.60
2018-09-12T19:53:54.597Z,4.37
2018-09-12T19:56:21.853Z,4.90
2018-09-12T19:58:49.103Z,5.70
2018-09-12T20:01:16.320Z,5.93
2018-09-12T20:03:43.643Z,5.30
2018-09-12T20:06:10.907Z,5.20
2018-09-12T20:08:38.157Z,5.10
2018-09-12T20:11:05.576Z,4.97
2018-09-12T20:13:32.840Z,4.97
2018-09-12T20:16:00.102Z,4.50
2018-09-12T20:18:27.509Z,3.33
2018-09-12T20:20:54.798Z,4.80
2018-09-12T20:23:22.357Z,4.30
2018-09-12T20:25:49.588Z,5.00
2018-09-12T20:28:16.912Z,5.30
2018-09-12T20:30:44.414Z,5.57
2018-09-12T20:33:11.728Z,6.10
2018-09-12T20:35:39.063Z,5.40
2018-09-12T20:38:06.319Z,5.43
2018-09-12T20:40:33.558Z,4.90
2018-09-12T20:43:00.816Z,6.03
2018-09-12T20:45:28.096Z,5.03
2018-09-12T20:47:55.458Z,5.40
2018-09-12T20:50:22.780Z,5.10
2018-09-12T20:52:50.100Z,4.93
2018-09-12T20:55:17.363Z,5.13
2018-09-12T20:57:44.572Z,5.13
2018-09-12T21:00:11.849Z,5.03
2018-09-12T21:02:39.089Z,4.97
2018-09-12T21:05:06.253Z,3.80
2018-09-12T21:07:33.476Z,3.80
2018-09-12T21:10:00.742Z,4.00
2018-09-12T21:12:28.049Z,4.47
2018-09-12T21:14:55.307Z,3.70
2018-09-12T21:17:22.596Z,3.47
2018-09-12T21:19:49.833Z,4.20
2018-09-12T21:22:17.121Z,4.60
2018-09-12T21:24:44.351Z,3.90
2018-09-12T21:27:11.645Z,3.70
2018-09-12T21:29:38.884Z,4.23
2018-09-12T21:32:06.136Z,4.43
2018-09-12T21:34:33.390Z,3.27
2018-09-12T21:37:00.629Z,4.30
2018-09-12T21:39:27.841Z,3.63
2018-09-12T21:41:55.098Z,3.77
2018-09-12T21:44:22.230Z,3.53
2018-09-12T21:46:49.515Z,2.93
2018-09-12T21:49:16.735Z,3.57
2018-09-12T21:51:43.986Z,4.20
2018-09-12T21:54:11.188Z,3.60
2018-09-12T21:56:38.458Z,4.33
2018-09-12T21:59:05.713Z,4.00
2018-09-12T22:01:32.971Z,4.50
2018-09-12T22:04:00.259Z,4.03
2018-09-12T22:06:27.539Z,3.17
2018-09-12T22:08:54.782Z,3.33
2018-09-12T22:11:22.024Z,3.73
2018-09-12T22:13:49.245Z,3.03
2018-09-12T22:16:16.451Z,4.03
2018-09-12T22:18:43.671Z,4.37
2018-09-12T22:21:10.933Z,3.97
2018-09-12T22:23:38.234Z,3.73
2018-09-12T22:26:05.518Z,3.83
2018-09-12T22:28:32.741Z,3.80
2018-09-12T22:31:00.044Z,4.30
2018-09-12T22:33:27.353Z,3.77
2018-09-12T22:35:54.647Z,4.07
2018-09-12T22:38:21.806Z,4.10
2018-09-12T22:40:49.074Z,3.40
2018-09-12T22:43:16.308Z,4.47
2018-09-12T22:45:43.534Z,4.23
2018-09-12T22:48:10.810Z,4.33
2018-09-12T22:50:38.019Z,4.00
2018-09-12T22:53:05.197Z,3.90
2018-09-12T22:55:32.337Z,3.80
2018-09-12T22:57:59.550Z,3.53
2018-09-12T23:00:26.856Z,4.03
2018-09-12T23:02:54.112Z,4.20
2018-09-12T23:05:21.362Z,3.70
2018-09-12T23:07:48.577Z,3.63
2018-09-12T23:10:15.825Z,3.73
2018-09-12T23:12:43.081Z,4.30
2018-09-12T23:15:10.455Z,3.73
2018-09-12T23:17:37.645Z,3.10
2018-09-12T23:20:05.443Z,3.63
2018-09-12T23:22:32.722Z,3.70
2018-09-12T23:25:00.019Z,3.87
2018-09-12T23:27:27.219Z,3.80
2018-09-12T23:29:54.525Z,3.63
2018-09-12T23:32:21.734Z,3.50
2018-09-12T23:34:49.019Z,3.33
2018-09-12T23:37:16.288Z,3.40
2018-09-12T23:39:43.494Z,3.63
2018-09-12T23:42:10.788Z,3.00
2018-09-12T23:44:38.002Z,3.87
2018-09-12T23:47:05.343Z,3.80
2018-09-12T23:49:32.638Z,3.83
2018-09-12T23:51:59.885Z,3.60
2018-09-12T23:54:27.185Z,4.10
2018-09-12T23:56:54.454Z,4.23
2018-09-12T23:59:21.704Z,4.40
